메인 페이지
METAR-TAF:

METAR-TAF

공항 :

앙카라 Etimesgut, 터키

위도: 39-57N, 경도: 032-41E, 고도: 799m

현재 날씨관측

예보는 8 시간 31분 전, 00:41시(UTC)에 발표되었습니다.
무풍
온도 1°C
습도 93%
기압 1018 hPa
시정 10km 이상
고도 1200ft 상공 구름 조금
고도 3500ft 상공 구름 많음
고도 9000ft 상공 구름 많음

METAR: LTAD 090041Z 00000KT 9999 FEW012 BKN035 BKN090 01/00 Q1018 RESN NOSIG RMK RWY29 00000KT

시각: 12:12 (09:12 UTC)

예보

예보는 1 시간 32분 전, 07:40시(UTC)에 발표되었습니다.
예보 대상 시간: 09일 09시부터 09일 18시까지 (UTC)
여러 방향의 바람 2kt
시정: 7000m
고도 3000ft 상공 구름 보통
고도 8000ft 상공 구름 많음

TAF: LTAD 090740Z 0909/0918 VRB02KT 7000 SCT030 BKN080

4,000개 이상의 공항 관측 자료 및 예보 (METAR 및 TAF 보고).

지도상에서 검색 가능한 기상관측소가 노란 점과 빨간 점으로 표시되어 있습니다.

기상관측소 명을 보려면 표시 위로 마우스를 이동하세요.

날씨 관측과 예보를 보려면 클릭하세요.

지도 변경 : 확대하려면 엑스 표시가 있는 녹색 버튼, 축소하려면 빼기 표시가 있는 녹색 버튼, 다음 페이지의 지도를 보려면 녹색 화살표를 클릭하세요.


METAR-TAF: